Time;durP1;ratioP1;P1;durP2;ratioP2;P2;SDS_P1;SDS_P2;PMS_P1;PMS_P2;Temp;Humidity;BMP_temperature;BMP_pressure;BME280_temperature;BME280_humidity;BME280_pressure;Samples;Min_cycle;Max_cycle;Signal;HPM_P1;HPM_P2
2023/04/10 00:01:00;;;;;;;;;;;8.20;99.90;;;;;;5062621;28;20391;-79
2023/04/10 00:03:26;;;;;;;;;;;8.20;99.90;;;;;;5079382;28;19924;-78
2023/04/10 00:05:53;;;;;;;;;;;8.20;99.90;;;;;;5078878;28;19931;-79
2023/04/10 00:08:22;;;;;;;;;;;8.10;99.90;;;;;;5080791;28;19930;-79
2023/04/10 00:10:48;;;;;;;;;;;8.20;99.90;;;;;;5077268;28;19984;-78
2023/04/10 00:13:15;;;;;;;;;;;8.10;99.90;;;;;;5096823;28;19924;-79
2023/04/10 00:15:40;;;;;;;;;;;8.10;99.90;;;;;;5095406;28;19934;-78
2023/04/10 00:18:06;;;;;;;;;;;8.10;99.90;;;;;;5096018;28;19978;-78
2023/04/10 00:20:32;;;;;;;;;;;8.10;99.90;;;;;;5078362;28;19994;-78
2023/04/10 00:22:57;;;;;;;;;;;8.10;99.90;;;;;;5076171;28;19939;-78
2023/04/10 00:25:23;;;;;;;;;;;8.10;99.90;;;;;;5077051;28;19924;-79
2023/04/10 00:27:49;;;;;;;;;;;8.10;99.90;;;;;;5062301;28;19949;-78
2023/04/10 00:30:14;;;;;;;;;;;8.10;99.90;;;;;;5095278;28;19931;-78
2023/04/10 00:32:40;;;;;;;;;;;8.10;99.90;;;;;;5079224;28;19928;-79
2023/04/10 00:35:07;;;;;;;;;;;8.00;99.90;;;;;;5079784;28;19991;-78
2023/04/10 00:37:32;;;;;;;;;;;8.00;99.90;;;;;;5076791;28;19924;-78
2023/04/10 00:39:58;;;;;;;;;;;8.00;99.90;;;;;;5078826;28;19928;-79
2023/04/10 00:42:24;;;;;;;;;;;7.90;99.90;;;;;;5076624;28;19924;-78
2023/04/10 00:44:50;;;;;;;;;;;7.90;99.90;;;;;;5061646;28;20014;-78
2023/04/10 00:47:17;;;;;;;;;;;7.80;99.90;;;;;;5062292;28;20407;-78
2023/04/10 00:49:43;;;;;;;;;;;7.80;99.90;;;;;;5079291;28;19928;-78
2023/04/10 00:52:09;;;;;;;;;;;7.80;99.90;;;;;;5061424;28;19924;-78
2023/04/10 00:54:35;;;;;;;;;;;7.80;99.90;;;;;;5062321;28;19935;-78
2023/04/10 00:57:02;;;;;;;;;;;7.80;99.90;;;;;;5063109;28;19928;-78
2023/04/10 00:59:27;;;;;;;;;;;7.70;99.90;;;;;;5095314;28;19963;-78
2023/04/10 01:01:53;;;;;;;;;;;7.70;99.90;;;;;;5077306;28;19958;-78
2023/04/10 01:04:19;;;;;;;;;;;7.60;99.90;;;;;;5062162;28;19975;-78
2023/04/10 01:06:45;;;;;;;;;;;7.60;99.90;;;;;;5079505;28;19952;-78
2023/04/10 01:09:23;;;;;;;;;;;7.60;99.90;;;;;;5079246;28;19940;-78
2023/04/10 01:11:49;;;;;;;;;;;7.60;99.90;;;;;;5094036;28;19939;-78
2023/04/10 01:14:38;;;;;;;;;;;7.50;99.90;;;;;;5075995;28;19958;-78
2023/04/10 01:17:10;;;;;;;;;;;7.50;99.90;;;;;;5065250;28;19924;-79
2023/04/10 01:19:59;;;;;;;;;;;7.50;99.90;;;;;;5078370;28;19959;-79
2023/04/10 01:22:27;;;;;;;;;;;7.50;99.90;;;;;;5079498;28;19924;-78
2023/04/10 01:24:56;;;;;;;;;;;7.50;99.90;;;;;;5078718;28;19924;-78
2023/04/10 01:27:39;;;;;;;;;;;7.50;99.90;;;;;;5079505;28;19963;-78
2023/04/10 01:30:05;;;;;;;;;;;7.50;99.90;;;;;;5097789;28;19985;-78
2023/04/10 01:32:32;;;;;;;;;;;7.50;99.90;;;;;;5092752;28;19933;-78
2023/04/10 01:35:00;;;;;;;;;;;7.50;99.90;;;;;;5080151;28;19924;-79
2023/04/10 01:37:29;;;;;;;;;;;7.50;99.90;;;;;;5071412;28;19963;-79
2023/04/10 01:40:00;;;;;;;;;;;7.40;99.90;;;;;;5078453;28;19939;-78
2023/04/10 01:42:29;;;;;;;;;;;7.40;99.90;;;;;;5079546;28;20352;-79
2023/04/10 01:44:55;;;;;;;;;;;7.40;99.90;;;;;;5078328;28;20280;-79
2023/04/10 01:47:21;;;;;;;;;;;7.40;99.90;;;;;;5076974;28;19935;-78
2023/04/10 01:49:48;;;;;;;;;;;7.40;99.90;;;;;;5096246;28;19946;-78
2023/04/10 01:52:14;;;;;;;;;;;7.40;99.90;;;;;;5078343;28;19924;-78
2023/04/10 01:54:42;;;;;;;;;;;7.30;99.90;;;;;;5094810;28;19924;-78
2023/04/10 01:57:09;;;;;;;;;;;7.40;99.90;;;;;;5077295;28;19931;-78
2023/04/10 01:59:36;;;;;;;;;;;7.40;99.90;;;;;;5095304;28;20367;-78
2023/04/10 02:02:03;;;;;;;;;;;7.30;99.90;;;;;;5079266;28;19946;-79
2023/04/10 02:04:29;;;;;;;;;;;7.40;99.90;;;;;;5060619;28;19924;-78
2023/04/10 02:07:16;;;;;;;;;;;7.40;99.90;;;;;;5064777;28;19945;-79
2023/04/10 02:09:45;;;;;;;;;;;7.40;99.90;;;;;;5093708;28;19924;-79
2023/04/10 02:12:15;;;;;;;;;;;7.40;99.90;;;;;;5082107;28;19928;-79
2023/04/10 02:14:42;;;;;;;;;;;7.50;99.90;;;;;;5079615;28;19935;-78
2023/04/10 02:17:08;;;;;;;;;;;7.40;99.90;;;;;;5097693;28;19924;-79
2023/04/10 02:19:34;;;;;;;;;;;7.40;99.90;;;;;;5097721;28;20402;-79
2023/04/10 02:22:00;;;;;;;;;;;7.40;99.90;;;;;;5063945;28;20001;-78
2023/04/10 02:24:26;;;;;;;;;;;7.40;99.90;;;;;;5098012;28;19995;-78
2023/04/10 02:26:52;;;;;;;;;;;7.40;99.90;;;;;;5081907;28;20464;-78
2023/04/10 02:29:17;;;;;;;;;;;7.30;99.90;;;;;;5078658;28;20465;-78
2023/04/10 02:31:44;;;;;;;;;;;7.30;99.90;;;;;;5082492;28;19924;-79
2023/04/10 02:34:10;;;;;;;;;;;7.30;99.90;;;;;;5065571;28;19924;-79
2023/04/10 02:36:37;;;;;;;;;;;7.30;99.90;;;;;;5097237;28;19924;-78
2023/04/10 02:39:03;;;;;;;;;;;7.30;99.90;;;;;;5072902;28;19974;-79
2023/04/10 02:41:28;;;;;;;;;;;7.30;99.90;;;;;;5098168;28;19924;-78
2023/04/10 02:43:54;;;;;;;;;;;7.20;99.90;;;;;;5061419;28;19940;-78
2023/04/10 02:46:19;;;;;;;;;;;7.20;99.90;;;;;;5087830;28;19928;-78
2023/04/10 02:48:45;;;;;;;;;;;7.20;99.90;;;;;;5079502;28;19992;-78
2023/04/10 02:51:10;;;;;;;;;;;7.20;99.90;;;;;;5080989;28;20035;-79
2023/04/10 02:53:36;;;;;;;;;;;7.20;99.90;;;;;;5064220;28;19934;-78
2023/04/10 02:56:02;;;;;;;;;;;7.20;99.90;;;;;;5097355;28;19929;-78
2023/04/10 02:58:29;;;;;;;;;;;7.20;99.90;;;;;;5074788;28;20409;-79
2023/04/10 03:00:55;;;;;;;;;;;7.20;99.90;;;;;;5060963;28;20397;-78
2023/04/10 03:03:21;;;;;;;;;;;7.20;99.90;;;;;;5074049;28;19935;-78
2023/04/10 03:05:48;;;;;;;;;;;7.20;99.90;;;;;;5060675;28;19925;-78
2023/04/10 03:08:16;;;;;;;;;;;7.20;99.90;;;;;;5060059;28;19987;-79
2023/04/10 03:10:47;;;;;;;;;;;7.20;99.90;;;;;;5080452;28;20363;-78
2023/04/10 03:13:13;;;;;;;;;;;7.10;99.90;;;;;;5076872;28;19969;-79
2023/04/10 03:15:39;;;;;;;;;;;7.10;99.90;;;;;;5049558;28;19929;-78
2023/04/10 03:18:04;;;;;;;;;;;7.00;99.90;;;;;;5074691;28;20258;-78
2023/04/10 03:20:37;;;;;;;;;;;7.00;99.90;;;;;;5096228;28;19928;-78
2023/04/10 03:23:04;;;;;;;;;;;7.00;99.90;;;;;;5080435;28;19935;-78
2023/04/10 03:25:31;;;;;;;;;;;7.00;99.90;;;;;;5099154;28;19975;-78
2023/04/10 03:27:56;;;;;;;;;;;6.90;99.90;;;;;;5081555;28;20348;-78
2023/04/10 03:30:22;;;;;;;;;;;6.90;99.90;;;;;;5081024;28;20313;-78
2023/04/10 03:32:48;;;;;;;;;;;6.90;99.90;;;;;;5055244;28;19953;-78
2023/04/10 03:35:13;;;;;;;;;;;6.90;99.90;;;;;;5081725;28;19928;-78
2023/04/10 03:37:41;;;;;;;;;;;6.90;99.90;;;;;;5081612;28;19934;-78
2023/04/10 03:40:07;;;;;;;;;;;6.90;99.90;;;;;;5097829;28;19924;-78
2023/04/10 03:42:33;;;;;;;;;;;6.90;99.90;;;;;;5080490;28;19967;-78
2023/04/10 03:45:00;;;;;;;;;;;6.90;99.90;;;;;;5079372;28;20424;-78
2023/04/10 03:47:25;;;;;;;;;;;6.90;99.90;;;;;;5097810;28;19967;-78
2023/04/10 03:49:51;;;;;;;;;;;6.90;99.90;;;;;;5064960;28;19931;-78
2023/04/10 03:52:17;;;;;;;;;;;6.90;99.90;;;;;;5098130;28;19932;-78
2023/04/10 03:54:42;;;;;;;;;;;6.90;99.90;;;;;;5079224;28;19924;-78
2023/04/10 03:57:08;;;;;;;;;;;6.90;99.90;;;;;;5078661;28;20328;-78
2023/04/10 03:59:33;;;;;;;;;;;6.90;99.90;;;;;;5098672;28;19951;-78
2023/04/10 04:01:59;;;;;;;;;;;6.90;99.90;;;;;;5079798;28;19924;-78
2023/04/10 04:04:25;;;;;;;;;;;6.90;99.90;;;;;;5079454;28;19939;-78
2023/04/10 04:06:51;;;;;;;;;;;7.00;99.90;;;;;;5095278;28;20494;-78
2023/04/10 04:09:17;;;;;;;;;;;7.00;99.90;;;;;;5080595;28;19948;-78
2023/04/10 04:11:43;;;;;;;;;;;7.00;99.90;;;;;;5095685;28;19931;-78
2023/04/10 04:14:08;;;;;;;;;;;7.00;99.90;;;;;;5061720;28;19967;-78
2023/04/10 04:16:34;;;;;;;;;;;7.00;99.90;;;;;;5060940;28;20486;-78
2023/04/10 04:18:59;;;;;;;;;;;7.00;99.90;;;;;;5077479;28;19927;-78
2023/04/10 04:21:25;;;;;;;;;;;7.10;99.90;;;;;;5079300;28;19924;-78
2023/04/10 04:23:51;;;;;;;;;;;7.10;99.90;;;;;;5078885;28;19928;-78
2023/04/10 04:26:16;;;;;;;;;;;7.20;99.90;;;;;;5095694;28;19924;-78
2023/04/10 04:28:42;;;;;;;;;;;7.20;99.90;;;;;;5077716;28;19928;-78
2023/04/10 04:31:07;;;;;;;;;;;7.20;99.90;;;;;;5079065;28;19943;-79
2023/04/10 04:33:33;;;;;;;;;;;7.30;99.90;;;;;;5076514;28;19931;-79
2023/04/10 04:35:58;;;;;;;;;;;7.30;99.90;;;;;;5080270;28;19924;-78
2023/04/10 04:38:24;;;;;;;;;;;7.30;99.90;;;;;;5078837;28;19935;-79
2023/04/10 04:40:50;;;;;;;;;;;7.30;99.90;;;;;;5093853;28;19967;-78
2023/04/10 04:43:15;;;;;;;;;;;7.30;99.90;;;;;;5062888;28;19924;-78
2023/04/10 04:45:41;;;;;;;;;;;7.40;99.90;;;;;;5077777;28;19931;-78
2023/04/10 04:48:06;;;;;;;;;;;7.40;99.90;;;;;;5061758;28;19945;-78
2023/04/10 04:50:32;;;;;;;;;;;7.30;99.90;;;;;;5078836;28;19924;-79
2023/04/10 04:52:59;;;;;;;;;;;7.30;99.90;;;;;;5079230;28;19928;-78
2023/04/10 04:55:24;;;;;;;;;;;7.30;99.90;;;;;;5077830;28;19982;-78
2023/04/10 04:57:50;;;;;;;;;;;7.30;99.90;;;;;;5077961;28;19932;-78
2023/04/10 05:00:16;;;;;;;;;;;7.30;99.90;;;;;;5061588;28;19991;-78
2023/04/10 05:02:41;;;;;;;;;;;7.30;99.90;;;;;;5079949;28;19928;-78
2023/04/10 05:05:07;;;;;;;;;;;7.30;99.90;;;;;;5058751;28;19924;-78
2023/04/10 05:07:33;;;;;;;;;;;7.30;99.90;;;;;;5062647;28;19928;-78
2023/04/10 05:09:58;;;;;;;;;;;7.30;99.90;;;;;;5057777;28;20387;-78
2023/04/10 05:12:24;;;;;;;;;;;7.30;99.90;;;;;;5075993;28;19930;-79
2023/04/10 05:14:50;;;;;;;;;;;7.30;99.90;;;;;;5059674;28;19924;-78
2023/04/10 05:17:15;;;;;;;;;;;7.30;99.90;;;;;;5075739;28;19960;-79
2023/04/10 05:19:41;;;;;;;;;;;7.40;99.90;;;;;;5058226;28;19975;-79
2023/04/10 05:22:07;;;;;;;;;;;7.40;99.90;;;;;;5097968;28;19951;-78
2023/04/10 05:24:32;;;;;;;;;;;7.40;99.90;;;;;;5096451;28;20019;-79
2023/04/10 05:26:58;;;;;;;;;;;7.50;99.90;;;;;;5094768;28;19931;-79
2023/04/10 05:29:23;;;;;;;;;;;7.50;99.90;;;;;;5062362;28;19950;-78
2023/04/10 05:31:50;;;;;;;;;;;7.50;99.90;;;;;;5062935;28;19925;-79
2023/04/10 05:34:16;;;;;;;;;;;7.60;99.90;;;;;;5079158;28;19924;-79
2023/04/10 05:36:41;;;;;;;;;;;7.60;99.90;;;;;;5078756;28;20387;-77
2023/04/10 05:39:07;;;;;;;;;;;7.60;99.90;;;;;;5096118;28;19924;-79
2023/04/10 05:41:33;;;;;;;;;;;7.70;99.90;;;;;;5065627;28;19927;-79
2023/04/10 05:43:58;;;;;;;;;;;7.70;99.90;;;;;;5081996;28;20379;-78
2023/04/10 05:46:24;;;;;;;;;;;7.80;99.90;;;;;;5065526;28;19924;-79
2023/04/10 05:48:50;;;;;;;;;;;7.80;99.90;;;;;;5067550;28;19924;-79
2023/04/10 05:51:15;;;;;;;;;;;7.90;99.90;;;;;;5100017;28;19964;-79
2023/04/10 05:53:41;;;;;;;;;;;8.00;99.90;;;;;;5082436;28;19936;-79
2023/04/10 05:56:07;;;;;;;;;;;8.00;99.90;;;;;;5082624;28;20370;-79
2023/04/10 05:58:32;;;;;;;;;;;8.00;99.90;;;;;;5079711;28;19925;-79
2023/04/10 06:00:58;;;;;;;;;;;8.10;99.90;;;;;;5081786;28;19939;-79
2023/04/10 06:03:26;;;;;;;;;;;8.10;99.90;;;;;;5097683;28;19924;-78
2023/04/10 06:05:52;;;;;;;;;;;8.20;99.90;;;;;;5096505;28;19968;-78
2023/04/10 06:08:18;;;;;;;;;;;8.20;99.90;;;;;;5056117;28;19935;-78
2023/04/10 06:10:45;;;;;;;;;;;8.30;99.90;;;;;;5099631;28;19924;-79
2023/04/10 06:13:10;;;;;;;;;;;8.40;99.90;;;;;;5081302;28;20113;-79
2023/04/10 06:15:36;;;;;;;;;;;8.40;99.90;;;;;;5098009;28;19967;-78
2023/04/10 06:18:02;;;;;;;;;;;8.50;99.90;;;;;;5078862;28;20402;-78
2023/04/10 06:20:27;;;;;;;;;;;8.60;99.90;;;;;;5079646;28;19935;-78
2023/04/10 06:22:53;;;;;;;;;;;8.60;99.90;;;;;;5078282;28;19928;-78
2023/04/10 06:25:18;;;;;;;;;;;8.70;99.90;;;;;;5066461;28;19928;-78
2023/04/10 06:27:44;;;;;;;;;;;8.80;99.90;;;;;;5065766;28;19928;-78
2023/04/10 06:30:10;;;;;;;;;;;8.90;99.90;;;;;;5082683;28;19936;-78
2023/04/10 06:32:35;;;;;;;;;;;8.90;99.90;;;;;;5081717;28;19959;-78
2023/04/10 06:35:01;;;;;;;;;;;9.00;99.90;;;;;;5081882;28;19935;-79
2023/04/10 06:37:28;;;;;;;;;;;9.00;99.90;;;;;;5082658;28;19924;-79
2023/04/10 06:40:04;;;;;;;;;;;9.00;99.90;;;;;;5082429;28;19980;-79
2023/04/10 06:42:30;;;;;;;;;;;9.10;99.90;;;;;;5099067;28;19924;-79
2023/04/10 06:44:56;;;;;;;;;;;9.10;99.90;;;;;;5081192;28;19950;-78
2023/04/10 06:47:21;;;;;;;;;;;9.20;99.90;;;;;;5065748;28;20310;-79
2023/04/10 06:49:47;;;;;;;;;;;9.20;99.90;;;;;;5081490;28;19935;-79
2023/04/10 06:52:12;;;;;;;;;;;9.30;99.90;;;;;;5082123;28;19932;-79
2023/04/10 06:54:38;;;;;;;;;;;9.40;99.90;;;;;;5098728;28;19946;-78
2023/04/10 06:57:05;;;;;;;;;;;9.50;99.90;;;;;;5064175;28;19924;-78
2023/04/10 06:59:32;;;;;;;;;;;9.50;99.90;;;;;;5081556;28;19957;-78
2023/04/10 07:01:58;;;;;;;;;;;9.60;99.90;;;;;;5081822;28;19995;-79
2023/04/10 07:04:24;;;;;;;;;;;9.60;99.90;;;;;;5079176;28;19935;-79
2023/04/10 07:06:49;;;;;;;;;;;9.70;99.90;;;;;;5071788;28;19931;-80
2023/04/10 07:09:15;;;;;;;;;;;9.80;99.90;;;;;;5079108;28;19931;-79
2023/04/10 07:11:40;;;;;;;;;;;9.90;99.90;;;;;;5097632;28;20063;-79
2023/04/10 07:14:06;;;;;;;;;;;10.00;99.90;;;;;;5081408;28;19924;-80
2023/04/10 07:16:32;;;;;;;;;;;10.10;99.90;;;;;;5082129;28;19931;-79
2023/04/10 07:18:57;;;;;;;;;;;10.10;99.90;;;;;;5062730;28;20425;-79
2023/04/10 07:21:23;;;;;;;;;;;10.40;99.90;;;;;;5064691;28;19930;-79
2023/04/10 07:23:48;;;;;;;;;;;10.70;99.90;;;;;;5081138;28;19924;-79
2023/04/10 07:26:14;;;;;;;;;;;10.80;99.90;;;;;;5081685;28;20295;-79
2023/04/10 07:28:40;;;;;;;;;;;11.10;99.90;;;;;;5060154;28;19932;-79
2023/04/10 07:31:07;;;;;;;;;;;11.50;99.90;;;;;;5081292;28;19924;-79
2023/04/10 07:33:32;;;;;;;;;;;12.00;99.10;;;;;;5064297;28;19924;-80
2023/04/10 07:35:58;;;;;;;;;;;12.50;99.50;;;;;;5064168;28;19924;-79
2023/04/10 07:38:24;;;;;;;;;;;12.90;94.00;;;;;;5081746;28;19931;-80
2023/04/10 07:40:54;;;;;;;;;;;13.30;97.00;;;;;;5081001;28;19977;-79
2023/04/10 07:43:20;;;;;;;;;;;13.60;94.60;;;;;;5080609;28;19928;-82
2023/04/10 07:45:46;;;;;;;;;;;13.70;92.20;;;;;;5076624;28;19967;-84
2023/04/10 07:48:11;;;;;;;;;;;13.90;87.70;;;;;;5063060;28;19924;-82
2023/04/10 07:50:37;;;;;;;;;;;14.20;88.20;;;;;;5072699;28;19925;-81
2023/04/10 07:53:06;;;;;;;;;;;14.50;84.80;;;;;;5075123;28;20416;-84
2023/04/10 07:55:39;;;;;;;;;;;14.70;88.90;;;;;;5078491;28;20280;-82
2023/04/10 07:58:05;;;;;;;;;;;14.90;84.90;;;;;;5098736;28;19943;-82
2023/04/10 08:00:31;;;;;;;;;;;15.00;90.50;;;;;;5073057;28;19941;-83
2023/04/10 08:02:56;;;;;;;;;;;15.00;79.60;;;;;;5078628;28;19955;-81
2023/04/10 08:05:22;;;;;;;;;;;15.20;80.30;;;;;;5080602;28;19928;-82
2023/04/10 08:07:48;;;;;;;;;;;15.30;77.60;;;;;;5064142;28;19953;-83
2023/04/10 08:10:13;;;;;;;;;;;15.30;81.60;;;;;;5061483;28;19928;-82
2023/04/10 08:12:39;;;;;;;;;;;15.20;77.00;;;;;;5079610;28;19931;-83
2023/04/10 08:15:05;;;;;;;;;;;15.00;77.80;;;;;;5093692;28;19931;-82
2023/04/10 08:17:30;;;;;;;;;;;14.90;75.60;;;;;;5079381;28;19924;-81
2023/04/10 08:19:56;;;;;;;;;;;14.80;78.40;;;;;;5079186;28;20295;-84
2023/04/10 08:22:21;;;;;;;;;;;14.60;76.00;;;;;;5077420;28;20398;-82
2023/04/10 08:24:47;;;;;;;;;;;14.60;79.30;;;;;;5062518;28;19924;-81
2023/04/10 08:27:14;;;;;;;;;;;14.70;77.00;;;;;;5059432;28;19932;-81
2023/04/10 08:29:40;;;;;;;;;;;14.80;77.50;;;;;;5064674;28;19954;-82
2023/04/10 08:32:06;;;;;;;;;;;14.80;78.50;;;;;;5072953;28;19924;-82
2023/04/10 08:34:32;;;;;;;;;;;14.90;80.70;;;;;;5079058;28;19923;-81
2023/04/10 08:36:57;;;;;;;;;;;14.90;86.30;;;;;;5079068;28;19924;-82
2023/04/10 08:39:23;;;;;;;;;;;14.90;75.50;;;;;;5097504;28;20014;-81
2023/04/10 08:41:49;;;;;;;;;;;15.00;76.20;;;;;;5077315;28;19935;-82
2023/04/10 08:44:14;;;;;;;;;;;15.10;78.10;;;;;;5059898;28;19932;-81
2023/04/10 08:46:42;;;;;;;;;;;15.30;75.10;;;;;;5074846;28;19983;-81
2023/04/10 08:49:08;;;;;;;;;;;15.40;74.60;;;;;;5075479;28;19928;-82
2023/04/10 08:51:53;;;;;;;;;;;15.50;73.30;;;;;;5077740;28;19928;-81
2023/04/10 08:54:26;;;;;;;;;;;15.60;74.70;;;;;;5077824;28;19931;-81
2023/04/10 08:56:53;;;;;;;;;;;15.70;77.70;;;;;;5079022;28;19945;-81
2023/04/10 08:59:18;;;;;;;;;;;15.70;75.00;;;;;;5078571;28;19963;-82
2023/04/10 09:01:45;;;;;;;;;;;15.70;73.90;;;;;;5060688;28;19928;-82
2023/04/10 09:04:11;;;;;;;;;;;15.80;71.40;;;;;;5079682;28;20034;-82
2023/04/10 09:06:37;;;;;;;;;;;15.80;69.70;;;;;;5071547;28;20353;-82
2023/04/10 09:09:04;;;;;;;;;;;15.80;69.20;;;;;;5060698;28;20038;-82
2023/04/10 09:11:49;;;;;;;;;;;15.80;69.30;;;;;;5076162;28;19924;-82
2023/04/10 09:14:21;;;;;;;;;;;15.80;69.10;;;;;;5087076;28;19923;-82
2023/04/10 09:16:47;;;;;;;;;;;15.70;68.60;;;;;;5094602;28;19935;-82
2023/04/10 09:19:12;;;;;;;;;;;15.60;69.50;;;;;;5079443;28;19928;-81
2023/04/10 09:21:38;;;;;;;;;;;15.70;72.30;;;;;;5096563;28;19993;-82
2023/04/10 09:24:04;;;;;;;;;;;15.80;70.10;;;;;;5096471;28;19982;-81
2023/04/10 09:26:31;;;;;;;;;;;16.10;71.20;;;;;;5078314;28;19997;-81
2023/04/10 09:29:00;;;;;;;;;;;16.20;69.20;;;;;;5079574;28;19929;-82
2023/04/10 09:31:35;;;;;;;;;;;16.00;67.40;;;;;;5094115;28;19935;-81
2023/04/10 09:34:21;;;;;;;;;;;15.80;68.90;;;;;;5079938;28;19935;-81
2023/04/10 09:36:54;;;;;;;;;;;15.50;70.60;;;;;;5074479;28;19969;-81
2023/04/10 09:39:20;;;;;;;;;;;15.40;72.00;;;;;;5076468;28;19928;-82
2023/04/10 09:41:50;;;;;;;;;;;15.30;68.10;;;;;;5074763;28;19959;-82
2023/04/10 09:44:17;;;;;;;;;;;15.30;68.20;;;;;;5078232;28;19930;-82
2023/04/10 09:46:43;;;;;;;;;;;15.30;68.90;;;;;;5072924;28;19924;-83
2023/04/10 09:49:08;;;;;;;;;;;15.40;69.50;;;;;;5066577;28;20038;-82
2023/04/10 09:51:34;;;;;;;;;;;15.70;70.40;;;;;;5061507;28;19928;-82
2023/04/10 09:54:01;;;;;;;;;;;15.80;71.30;;;;;;5094740;28;19928;-81
2023/04/10 09:56:27;;;;;;;;;;;15.90;69.40;;;;;;5075242;28;19927;-82
2023/04/10 09:58:55;;;;;;;;;;;16.00;70.70;;;;;;5066719;28;19928;-82
2023/04/10 10:01:20;;;;;;;;;;;16.10;66.80;;;;;;5079435;28;19971;-82
2023/04/10 10:03:46;;;;;;;;;;;16.30;68.70;;;;;;5057533;28;19929;-81
2023/04/10 10:06:12;;;;;;;;;;;16.50;68.30;;;;;;5061751;28;19932;-82
2023/04/10 10:08:38;;;;;;;;;;;16.70;66.30;;;;;;5089326;28;20026;-81
2023/04/10 10:11:06;;;;;;;;;;;16.70;65.80;;;;;;5077940;28;19969;-82
2023/04/10 10:13:40;;;;;;;;;;;16.70;66.30;;;;;;5059687;28;19928;-82
2023/04/10 10:16:11;;;;;;;;;;;16.70;68.50;;;;;;5094002;28;19924;-81
2023/04/10 10:18:46;;;;;;;;;;;16.50;65.60;;;;;;5092506;28;19925;-82
2023/04/10 10:21:12;;;;;;;;;;;16.30;66.30;;;;;;5102464;28;19928;-82
2023/04/10 10:23:39;;;;;;;;;;;16.10;67.30;;;;;;5058324;28;19924;-79
2023/04/10 10:26:07;;;;;;;;;;;15.90;67.00;;;;;;5076343;28;19924;-79
2023/04/10 10:28:34;;;;;;;;;;;15.90;66.90;;;;;;5078703;28;19924;-79
2023/04/10 10:31:01;;;;;;;;;;;15.80;69.20;;;;;;5081620;28;19924;-79
2023/04/10 10:33:28;;;;;;;;;;;15.70;67.10;;;;;;5075722;28;19947;-79
2023/04/10 10:35:56;;;;;;;;;;;15.70;68.20;;;;;;5074468;28;19924;-79
2023/04/10 10:38:22;;;;;;;;;;;15.70;68.80;;;;;;5081366;28;19973;-79
2023/04/10 10:40:57;;;;;;;;;;;15.70;70.30;;;;;;5081033;28;20390;-79
2023/04/10 10:43:27;;;;;;;;;;;15.80;70.20;;;;;;5081063;28;19924;-79
2023/04/10 10:45:59;;;;;;;;;;;15.80;70.80;;;;;;5081541;28;19969;-78
2023/04/10 10:48:25;;;;;;;;;;;15.70;68.80;;;;;;5097524;28;19932;-79
2023/04/10 10:50:59;;;;;;;;;;;15.70;68.60;;;;;;5081666;28;19934;-79
2023/04/10 10:53:35;;;;;;;;;;;15.70;68.20;;;;;;5080997;28;19928;-79
2023/04/10 10:56:25;;;;;;;;;;;15.70;67.30;;;;;;5091187;28;19928;-78
2023/04/10 10:58:52;;;;;;;;;;;15.70;69.40;;;;;;5078049;28;19928;-79
2023/04/10 11:01:19;;;;;;;;;;;15.80;68.80;;;;;;5080229;28;19954;-79
2023/04/10 11:03:45;;;;;;;;;;;15.90;69.00;;;;;;5096384;28;20449;-79
2023/04/10 11:06:11;;;;;;;;;;;15.90;69.50;;;;;;5094017;28;19960;-79
2023/04/10 11:08:44;;;;;;;;;;;15.90;67.50;;;;;;5090088;28;20025;-79
2023/04/10 11:11:11;;;;;;;;;;;15.90;68.50;;;;;;5080538;28;19935;-80
2023/04/10 11:13:38;;;;;;;;;;;15.90;68.20;;;;;;5096057;28;19954;-79
2023/04/10 11:16:05;;;;;;;;;;;15.90;67.80;;;;;;5078104;28;19974;-80
2023/04/10 11:18:43;;;;;;;;;;;15.90;67.00;;;;;;5095074;28;20068;-77
2023/04/10 11:21:10;;;;;;;;;;;15.90;68.20;;;;;;5081251;28;19971;-77
2023/04/10 11:23:36;;;;;;;;;;;15.90;66.70;;;;;;5081626;28;19928;-77
2023/04/10 11:26:02;;;;;;;;;;;15.90;71.30;;;;;;5081790;28;19930;-77
2023/04/10 11:28:30;;;;;;;;;;;15.90;69.00;;;;;;5081597;28;19970;-76
2023/04/10 11:31:13;;;;;;;;;;;15.80;70.10;;;;;;5081668;28;19999;-77
2023/04/10 11:33:39;;;;;;;;;;;15.80;68.90;;;;;;5077486;28;19959;-77
2023/04/10 11:36:05;;;;;;;;;;;15.70;68.40;;;;;;5075408;28;20390;-76
2023/04/10 11:38:31;;;;;;;;;;;15.70;69.40;;;;;;5066812;28;19934;-77
2023/04/10 11:40:58;;;;;;;;;;;15.70;68.90;;;;;;5061554;28;19967;-77
2023/04/10 11:43:24;;;;;;;;;;;15.80;73.00;;;;;;5096808;28;19928;-77
2023/04/10 11:45:57;;;;;;;;;;;15.80;67.70;;;;;;5098118;28;19942;-76
2023/04/10 11:48:23;;;;;;;;;;;15.90;68.80;;;;;;5081495;28;19925;-77
2023/04/10 11:50:49;;;;;;;;;;;15.90;69.90;;;;;;5081704;28;19931;-77
2023/04/10 11:53:18;;;;;;;;;;;16.00;68.50;;;;;;5098110;28;20261;-77
2023/04/10 11:55:45;;;;;;;;;;;16.10;69.40;;;;;;5081577;28;19924;-76
2023/04/10 11:58:21;;;;;;;;;;;16.20;69.60;;;;;;5095613;28;19979;-77
2023/04/10 12:00:54;;;;;;;;;;;16.20;68.20;;;;;;5097138;28;19924;-77
2023/04/10 12:03:30;;;;;;;;;;;16.30;69.60;;;;;;5079758;28;20019;-77
2023/04/10 12:05:55;;;;;;;;;;;16.40;67.70;;;;;;5076602;28;19925;-77
2023/04/10 12:08:29;;;;;;;;;;;16.40;69.20;;;;;;5096560;28;20263;-77
2023/04/10 12:10:55;;;;;;;;;;;16.40;70.20;;;;;;5080594;28;19984;-76
2023/04/10 12:13:27;;;;;;;;;;;16.40;69.10;;;;;;5062672;28;19924;-77
2023/04/10 12:15:53;;;;;;;;;;;16.60;69.40;;;;;;5079598;28;19938;-77
2023/04/10 12:18:22;;;;;;;;;;;16.80;68.30;;;;;;5096048;28;20371;-76
2023/04/10 12:20:50;;;;;;;;;;;17.00;68.60;;;;;;5080437;28;19927;-76
2023/04/10 12:23:16;;;;;;;;;;;17.20;70.20;;;;;;5058189;28;20000;-78
2023/04/10 12:25:42;;;;;;;;;;;17.20;68.00;;;;;;5078904;28;19924;-77
2023/04/10 12:28:08;;;;;;;;;;;17.10;69.20;;;;;;5094258;28;19924;-76
2023/04/10 12:30:33;;;;;;;;;;;16.90;68.40;;;;;;5077783;28;19928;-77
2023/04/10 12:33:03;;;;;;;;;;;16.70;68.90;;;;;;5060841;28;19924;-78
2023/04/10 12:35:38;;;;;;;;;;;16.60;67.70;;;;;;5076802;28;19924;-78
2023/04/10 12:38:04;;;;;;;;;;;16.50;69.30;;;;;;5077690;28;19932;-77
2023/04/10 12:40:30;;;;;;;;;;;16.40;70.30;;;;;;5080505;28;19928;-77
2023/04/10 12:42:56;;;;;;;;;;;16.30;70.90;;;;;;5060146;28;20353;-76
2023/04/10 12:45:39;;;;;;;;;;;16.30;70.70;;;;;;5093310;28;19935;-78
2023/04/10 12:48:05;;;;;;;;;;;16.30;70.40;;;;;;5092908;28;19938;-77
2023/04/10 12:50:31;;;;;;;;;;;16.20;69.30;;;;;;5078367;28;20015;-78
2023/04/10 12:53:05;;;;;;;;;;;16.20;71.20;;;;;;5078570;28;19924;-77
2023/04/10 12:55:31;;;;;;;;;;;16.20;70.30;;;;;;5072755;28;20470;-77
2023/04/10 12:57:56;;;;;;;;;;;16.20;71.50;;;;;;5078628;28;20406;-77
2023/04/10 13:00:22;;;;;;;;;;;16.30;71.30;;;;;;5098571;28;19924;-76
2023/04/10 13:02:48;;;;;;;;;;;16.40;71.60;;;;;;5097829;28;19928;-78
2023/04/10 13:05:14;;;;;;;;;;;16.50;69.10;;;;;;5063951;28;19924;-77
2023/04/10 13:07:40;;;;;;;;;;;16.60;71.60;;;;;;5074515;28;19924;-77
2023/04/10 13:10:06;;;;;;;;;;;16.70;72.40;;;;;;5061249;28;19978;-76
2023/04/10 13:12:33;;;;;;;;;;;16.70;69.80;;;;;;5095475;28;19928;-75
2023/04/10 13:15:00;;;;;;;;;;;16.70;70.60;;;;;;5098406;28;19928;-75
2023/04/10 13:17:26;;;;;;;;;;;16.60;69.90;;;;;;5096730;28;20375;-75
2023/04/10 13:19:51;;;;;;;;;;;16.70;71.30;;;;;;5096198;28;19991;-76
2023/04/10 13:22:17;;;;;;;;;;;16.70;72.10;;;;;;5096941;28;20341;-75
2023/04/10 13:24:43;;;;;;;;;;;16.70;70.60;;;;;;5097742;28;19949;-75
2023/04/10 13:27:09;;;;;;;;;;;16.70;68.20;;;;;;5096865;28;19924;-75
2023/04/10 13:29:35;;;;;;;;;;;16.60;70.10;;;;;;5097850;28;19971;-75
2023/04/10 13:32:04;;;;;;;;;;;16.60;71.60;;;;;;5096445;28;19989;-75
2023/04/10 13:34:30;;;;;;;;;;;16.50;70.20;;;;;;5095965;28;19924;-75
2023/04/10 13:36:55;;;;;;;;;;;16.50;69.90;;;;;;5096785;28;19930;-75
2023/04/10 13:39:21;;;;;;;;;;;16.40;70.90;;;;;;5096465;28;19928;-75
2023/04/10 13:41:46;;;;;;;;;;;16.40;71.30;;;;;;5094495;28;19935;-75
2023/04/10 13:44:12;;;;;;;;;;;16.30;72.40;;;;;;5094837;28;19979;-75
2023/04/10 13:46:37;;;;;;;;;;;16.20;72.30;;;;;;5093405;28;19928;-76
2023/04/10 13:49:03;;;;;;;;;;;16.20;71.50;;;;;;5094709;28;19972;-75
2023/04/10 13:51:28;;;;;;;;;;;16.20;71.80;;;;;;5095061;28;19958;-76
2023/04/10 13:53:54;;;;;;;;;;;16.10;72.40;;;;;;5095440;28;19960;-76
2023/04/10 13:56:20;;;;;;;;;;;16.10;72.50;;;;;;5093989;28;19998;-75
2023/04/10 13:58:45;;;;;;;;;;;16.00;72.00;;;;;;5096982;28;19931;-75
2023/04/10 14:01:11;;;;;;;;;;;15.90;72.00;;;;;;5094821;28;19995;-75
2023/04/10 14:03:37;;;;;;;;;;;15.90;72.40;;;;;;5098936;28;19925;-75
2023/04/10 14:06:02;;;;;;;;;;;15.80;73.60;;;;;;5092693;28;19928;-75
2023/04/10 14:08:28;;;;;;;;;;;15.70;73.50;;;;;;5092504;28;20019;-75
2023/04/10 14:10:53;;;;;;;;;;;15.60;73.00;;;;;;5099617;28;19932;-75
2023/04/10 14:13:19;;;;;;;;;;;15.60;73.90;;;;;;5099851;28;19927;-75
2023/04/10 14:15:45;;;;;;;;;;;15.60;72.40;;;;;;5097796;28;19924;-75
2023/04/10 14:18:11;;;;;;;;;;;15.50;72.80;;;;;;5098415;28;19983;-75
2023/04/10 14:20:41;;;;;;;;;;;15.40;73.30;;;;;;5100629;28;19948;-75
2023/04/10 14:23:06;;;;;;;;;;;15.40;73.20;;;;;;5098481;28;19924;-75